Time;durP1;ratioP1;P1;durP2;ratioP2;P2;SDS_P1;SDS_P2;PMS_P1;PMS_P2;Temp;Humidity;BMP_temperature;BMP_pressure;BME280_temperature;BME280_humidity;BME280_pressure;Samples;Min_cycle;Max_cycle;Signal;HPM_P1;HPM_P2
2021/09/28 16:05:21;;;;;;;4.97;1.70;;;;;;;;;;6161825;22;20383;-46
2021/09/28 16:07:50;;;;;;;3.85;1.50;;;;;;;;;;6211020;23;20355;-47
2021/09/28 16:10:20;;;;;;;4.70;1.45;;;;;;;;;;6211252;23;20443;-45
2021/09/28 16:12:48;;;;;;;3.80;1.30;;;;;;;;;;6209454;23;20405;-45
2021/09/28 16:15:17;;;;;;;3.67;1.45;;;;;;;;;;6209409;23;20348;-45
2021/09/28 16:17:46;;;;;;;3.67;1.37;;;;;;;;;;6211365;23;20395;-46
2021/09/28 16:20:12;;;;;;;4.25;1.73;;;;;;;;;;6210702;23;20437;-45
2021/09/28 16:22:38;;;;;;;8.20;4.73;;;;;;;;;;6211336;23;20340;-48
2021/09/28 16:25:05;;;;;;;7.23;3.60;;;;;;;;;;6210439;23;20370;-46
2021/09/28 16:27:31;;;;;;;13.73;7.30;;;;;;;;;;6210881;23;20344;-44
2021/09/28 16:29:58;;;;;;;37.30;23.98;;;;;;;;;;6210726;23;20375;-44
2021/09/28 16:32:26;;;;;;;27.45;18.80;;;;;;;;;;6211020;23;20434;-46
2021/09/28 16:34:55;;;;;;;25.35;17.30;;;;;;;;;;6210531;23;20332;-46
2021/09/28 16:37:22;;;;;;;24.80;16.50;;;;;;;;;;6211006;23;20348;-46
2021/09/28 16:39:48;;;;;;;24.48;15.48;;;;;;;;;;6210201;23;20386;-47
2021/09/28 16:42:14;;;;;;;24.10;15.57;;;;;;;;;;6183228;23;20813;-46
2021/09/28 16:44:42;;;;;;;22.30;14.38;;;;;;;;;;6210922;23;20340;-46
2021/09/28 16:47:09;;;;;;;19.73;12.63;;;;;;;;;;6210812;23;20386;-45
2021/09/28 16:49:38;;;;;;;14.85;10.57;;;;;;;;;;6210552;23;20332;-45
2021/09/28 16:52:04;;;;;;;17.42;10.13;;;;;;;;;;6183831;23;20820;-45
2021/09/28 16:54:30;;;;;;;17.58;10.98;;;;;;;;;;6183084;23;20497;-45
2021/09/28 16:57:03;;;;;;;17.75;10.45;;;;;;;;;;6210210;23;20340;-45
2021/09/28 16:59:31;;;;;;;16.08;9.25;;;;;;;;;;6210838;23;20409;-46
2021/09/28 17:01:57;;;;;;;15.13;9.02;;;;;;;;;;6210014;23;20340;-46
2021/09/28 17:04:26;;;;;;;12.07;7.68;;;;;;;;;;6210464;23;20355;-46
2021/09/28 17:06:53;;;;;;;11.40;7.10;;;;;;;;;;6209878;23;20423;-45
2021/09/28 17:09:19;;;;;;;11.38;6.05;;;;;;;;;;6210223;23;20389;-44
2021/09/28 17:11:45;;;;;;;21.25;14.18;;;;;;;;;;6210459;23;20339;-44
2021/09/28 17:14:12;;;;;;;51.70;35.90;;;;;;;;;;6210284;23;20350;-43
2021/09/28 17:16:38;;;;;;;29.73;19.52;;;;;;;;;;6183310;23;20359;-45
2021/09/28 17:19:06;;;;;;;22.85;15.27;;;;;;;;;;6183536;23;20387;-43
2021/09/28 17:21:32;;;;;;;17.95;12.10;;;;;;;;;;6209772;23;20745;-44
2021/09/28 17:24:00;;;;;;;18.10;11.43;;;;;;;;;;6183544;23;20355;-44
2021/09/28 17:26:28;;;;;;;12.27;6.72;;;;;;;;;;6209136;23;20344;-44
2021/09/28 17:28:55;;;;;;;11.88;6.22;;;;;;;;;;6210250;23;20369;-44
2021/09/28 17:31:22;;;;;;;10.55;5.35;;;;;;;;;;6210078;23;20395;-44
2021/09/28 17:33:49;;;;;;;9.00;3.97;;;;;;;;;;6210028;23;20343;-43
2021/09/28 17:36:15;;;;;;;8.18;4.32;;;;;;;;;;6209751;23;20336;-43
2021/09/28 17:38:41;;;;;;;5.45;2.95;;;;;;;;;;6183190;23;20471;-51
2021/09/28 17:41:10;;;;;;;7.15;3.25;;;;;;;;;;6209727;23;20340;-43
2021/09/28 17:43:36;;;;;;;7.00;2.80;;;;;;;;;;6209103;23;20361;-43
2021/09/28 17:46:02;;;;;;;6.32;2.65;;;;;;;;;;6209574;23;20409;-43
2021/09/28 17:48:29;;;;;;;6.93;2.70;;;;;;;;;;6209249;23;20355;-44
2021/09/28 17:50:55;;;;;;;5.13;2.00;;;;;;;;;;6208483;23;20403;-43
2021/09/28 17:53:26;;;;;;;4.85;2.10;;;;;;;;;;6209754;23;20743;-43
2021/09/28 17:58:39;;;;;;;5.78;1.90;;;;;;;;;;6148132;23;20834;-43
2021/09/28 18:01:05;;;;;;;5.20;1.70;;;;;;;;;;6209992;23;20386;-43
2021/09/28 18:03:31;;;;;;;3.67;1.50;;;;;;;;;;6209645;23;20335;-43
2021/09/28 18:05:57;;;;;;;4.60;1.50;;;;;;;;;;6209733;23;20371;-43
2021/09/28 18:08:24;;;;;;;4.60;1.47;;;;;;;;;;6209121;23;20721;-43
2021/09/28 18:10:50;;;;;;;5.22;2.00;;;;;;;;;;6210256;23;20324;-43
2021/09/28 18:13:18;;;;;;;4.43;1.40;;;;;;;;;;6209950;23;20421;-43
2021/09/28 18:15:45;;;;;;;4.75;1.30;;;;;;;;;;6209595;23;20358;-43
2021/09/28 18:18:11;;;;;;;3.90;1.27;;;;;;;;;;6208998;23;20387;-43
2021/09/28 18:20:41;;;;;;;5.47;1.60;;;;;;;;;;6208582;23;20347;-42
2021/09/28 18:23:10;;;;;;;4.40;1.58;;;;;;;;;;6208876;23;20375;-42
2021/09/28 18:25:38;;;;;;;5.70;1.60;;;;;;;;;;6209078;23;20344;-44
2021/09/28 18:28:04;;;;;;;4.47;1.23;;;;;;;;;;6208989;23;20354;-43
2021/09/28 18:30:31;;;;;;;3.90;1.33;;;;;;;;;;6209014;23;20810;-43
2021/09/28 18:32:58;;;;;;;5.13;1.70;;;;;;;;;;6209206;23;20327;-45
2021/09/28 18:35:27;;;;;;;4.78;1.55;;;;;;;;;;6208890;23;20388;-44
2021/09/28 18:37:59;;;;;;;5.13;1.88;;;;;;;;;;6207609;23;20344;-43
2021/09/28 18:40:48;;;;;;;3.65;1.30;;;;;;;;;;6207647;23;20386;-43
2021/09/28 18:43:22;;;;;;;4.72;1.65;;;;;;;;;;6207625;23;20324;-43
2021/09/28 18:45:48;;;;;;;3.90;1.40;;;;;;;;;;6207526;23;20390;-43
2021/09/28 18:48:20;;;;;;;4.38;1.40;;;;;;;;;;6208350;23;20426;-44
2021/09/28 18:50:49;;;;;;;3.63;1.30;;;;;;;;;;6209566;23;20445;-43
2021/09/28 18:53:17;;;;;;;4.47;1.30;;;;;;;;;;6210099;23;20339;-43
2021/09/28 18:55:45;;;;;;;4.43;1.40;;;;;;;;;;6209702;23;20336;-43
2021/09/28 18:58:19;;;;;;;3.53;1.03;;;;;;;;;;6207388;23;20430;-42
2021/09/28 19:00:56;;;;;;;4.28;1.30;;;;;;;;;;6209739;23;20834;-43
2021/09/28 19:03:29;;;;;;;3.92;1.40;;;;;;;;;;6208871;23;20792;-44
2021/09/28 19:05:59;;;;;;;3.88;1.52;;;;;;;;;;6207780;23;20684;-44
2021/09/28 19:08:28;;;;;;;4.50;1.30;;;;;;;;;;6209663;23;20332;-43
2021/09/28 19:10:54;;;;;;;2.97;1.10;;;;;;;;;;6209669;23;20339;-43
2021/09/28 19:13:21;;;;;;;3.85;1.23;;;;;;;;;;6209667;23;20978;-42
2021/09/28 19:15:47;;;;;;;3.53;1.17;;;;;;;;;;6210692;23;20336;-42
2021/09/28 19:18:13;;;;;;;3.15;1.15;;;;;;;;;;6210645;23;20374;-43
2021/09/28 19:21:38;;;;;;;5.57;1.63;;;;;;;;;;6208772;23;20371;-43
2021/09/28 19:23:35;;;;;;;4.53;1.50;;;;;;;;;;6209315;23;20344;-44
2021/09/28 19:26:01;;;;;;;4.72;1.40;;;;;;;;;;6209281;23;20332;-43
2021/09/28 19:28:27;;;;;;;4.68;1.40;;;;;;;;;;6209730;23;20362;-43
2021/09/28 19:30:55;;;;;;;3.72;1.20;;;;;;;;;;6207128;23;20328;-43
2021/09/28 19:33:22;;;;;;;3.95;1.10;;;;;;;;;;6209666;23;20336;-43
2021/09/28 19:35:51;;;;;;;3.95;1.40;;;;;;;;;;6209700;23;20411;-43
2021/09/28 19:38:22;;;;;;;3.30;1.33;;;;;;;;;;6209365;23;20466;-43
2021/09/28 19:40:53;;;;;;;3.60;1.10;;;;;;;;;;6208898;23;20451;-42
2021/09/28 19:43:26;;;;;;;3.55;1.08;;;;;;;;;;6209722;23;20791;-43
2021/09/28 19:45:55;;;;;;;4.30;1.25;;;;;;;;;;6209619;23;20394;-43
2021/09/28 19:48:30;;;;;;;4.13;1.05;;;;;;;;;;6209277;23;20336;-43
2021/09/28 19:50:57;;;;;;;7.33;4.17;;;;;;;;;;6210318;23;20344;-43
2021/09/28 19:53:24;;;;;;;4.35;1.70;;;;;;;;;;6210102;23;20336;-43
2021/09/28 20:01:20;;;;;;;5.28;2.00;;;;;;;;;;6209645;23;20398;-42
2021/09/28 20:36:14;;;;;;;4.13;1.30;;;;;;;;;;6208860;23;20435;-42
2021/09/28 20:38:41;;;;;;;3.55;1.25;;;;;;;;;;6209576;23;20375;-42
2021/09/28 20:41:08;;;;;;;3.50;1.13;;;;;;;;;;6209864;23;20342;-43
2021/09/28 20:43:34;;;;;;;4.53;1.50;;;;;;;;;;6183338;23;20374;-44
2021/09/28 20:46:04;;;;;;;3.78;1.27;;;;;;;;;;6209378;23;20669;-43
2021/09/28 20:48:31;;;;;;;3.47;1.27;;;;;;;;;;6209862;23;20348;-42
2021/09/28 20:50:58;;;;;;;2.97;1.00;;;;;;;;;;6210629;23;20359;-43
2021/09/28 20:53:24;;;;;;;2.95;1.00;;;;;;;;;;6209756;23;20332;-42
2021/09/28 20:55:50;;;;;;;4.45;1.17;;;;;;;;;;6209104;23;20343;-42
2021/09/28 20:58:19;;;;;;;3.35;1.05;;;;;;;;;;6209562;23;20383;-43
2021/09/28 21:00:46;;;;;;;2.95;1.05;;;;;;;;;;6210805;23;20336;-42
2021/09/28 21:03:13;;;;;;;4.10;1.20;;;;;;;;;;6208237;23;20395;-44
2021/09/28 21:05:39;;;;;;;4.10;1.27;;;;;;;;;;6210079;23;20367;-43
2021/09/28 21:08:06;;;;;;;3.92;1.15;;;;;;;;;;6208620;23;20788;-43
2021/09/28 21:10:32;;;;;;;4.70;1.08;;;;;;;;;;6208694;23;20346;-42
2021/09/28 21:12:58;;;;;;;3.72;1.20;;;;;;;;;;6210026;23;20374;-41
2021/09/28 21:15:26;;;;;;;4.13;1.20;;;;;;;;;;6205695;23;20423;-42
2021/09/28 21:17:52;;;;;;;4.05;1.27;;;;;;;;;;6208907;23;20446;-42
2021/09/28 21:20:18;;;;;;;5.28;1.33;;;;;;;;;;6207942;23;20375;-41
2021/09/28 21:22:45;;;;;;;7.85;1.60;;;;;;;;;;6209686;23;20336;-41
